CheckWX is a tool to help pilots better visualize weather data.  It is not intended as a substitute for an official pre-flight weather briefing.

12:24:15 UTC

RKSM TAF
Seoul Air Base Airport
South Korea
TAF RKSM 271100Z 2712/2818 27006KT 9999 SCT030 SCT200 BECMG 2800/2801 21006KT 9999 BKN030 TN12/2721Z TX23/2806Z

May-27@
12:00 UTC

May-27 @ 12:00 UTC

May-28@
00:00 UTC

May-28 @ 00:00 UTC

TAF RKSM 271100Z 2712/2818 27006KT 9999 SCT030 SCT200

Expired

Wind
  • 270° at 6 KTS
Cloud Levels
  • Scattered at 3,000' AGL
  • Scattered at 20,000' AGL

May-28@
00:00 UTC

May-28 @ 00:00 UTC

May-28@
18:00 UTC

May-28 @ 18:00 UTC

BECMG 2800/2801 21006KT 9999 BKN030 TN12/2721Z TX23/2806Z

Becoming

Becoming Conditions expected by Thu, May 28, 2020 @ 01:00 UTC

Wind
  • 210° at 6 KTS
Cloud Levels
  • Broken at 3,000' AGL